الصفحة الرئيسية
METAR-TAF:

METAR-TAF

مطار :

Dzaoudzi, مايوت

دائرة عرض: 12-48S, خط طول: 045-17E, ارتفاع: 8 متر

مراقبة الطقس الحالي

تاريخ ووقت الإصدار 30 دقيقة قبل الساعة 09:00UTC
ريح 3 عقدةمن اتجاهات متغيرة
درجة الحرارة 30°درجة مئوية
الرطوبة 66%
ضغط 1013 hPa
الرؤية 10 كم أو أكثر
غيوم مفككة على ارتفاع 2800 قدم
غيوم مفككة على ارتفاع 3800 قدم

METAR: FMCZ 260900Z AUTO VRB03KT 9999 BKN028 BKN038 30/23 Q1013 TEMPO SHRA

زمن: 12:30 (09:30 UTC)

توقعات

تاريخ ووقت الإصدار 4ساعات و 30 دقيقة قبل الساعة 05:00UTC
التوقعات صالحة من26 الساعة 06 UTC إلى 27 الساعة 06 UTC
ريح 4 عقدة من الغرب
الرؤية 10 كم أو أكثر
الغيوم لا تقل 1500 م ولا وجود لمزنة ركامية السحاب الأسود
نظرية الاحتمالات 30% :
مؤقت
من 26 الساعة 10 UTC إلى 26 الساعة 13 UTC
زخات من المطر

TAF: FMCZ 260500Z 2606/2706 27004KT CAVOK PROB30 TEMPO 2610/2613 SHRA

أرصاد الطقس والتوقعات من أكثر من 4000 مطار (تقارير الطقس للمطار METAR والتنبؤ بالطقس بالمطارTAF).

المحطات المتاحة هي النقط الصفراء والحمراء على الخريطة.

حرك المؤشر فوق النقطة لمعرفة اسم المحطة.

ثم انقر لمعرفة أرصاد وتوقعات الطقس.

لتغيير الخارطة: اضغط على الأزرار الخضراء مع رمز الصليب الأسود للتكبير. على الزر الأخضر مع شرطة للتصغير، أو على الأسهم الخضراء للخرائط المجاورة.


METAR-TAF: